sensor_id;sensor_type;location;lat;lon;timestamp;pressure;altitude;pressure_sealevel;temperature;humidity
17072;BME280;7731;50.720;6.912;2022-12-04T00:01:33;100110.66;;;2.36;100.00
17072;BME280;7731;50.720;6.912;2022-12-04T00:04:04;100116.97;;;2.09;100.00
17072;BME280;7731;50.720;6.912;2022-12-04T00:06:34;100112.13;;;1.93;100.00
17072;BME280;7731;50.720;6.912;2022-12-04T00:09:06;100107.97;;;1.89;100.00
17072;BME280;7731;50.720;6.912;2022-12-04T00:11:38;100100.69;;;2.24;100.00
17072;BME280;7731;50.720;6.912;2022-12-04T00:14:10;100106.81;;;2.12;100.00
17072;BME280;7731;50.720;6.912;2022-12-04T00:16:40;100109.25;;;2.18;100.00
17072;BME280;7731;50.720;6.912;2022-12-04T00:19:11;100108.69;;;1.98;100.00
17072;BME280;7731;50.720;6.912;2022-12-04T00:21:41;100107.06;;;1.93;100.00
17072;BME280;7731;50.720;6.912;2022-12-04T00:24:12;100099.75;;;1.72;100.00
17072;BME280;7731;50.720;6.912;2022-12-04T00:26:44;100107.22;;;1.81;100.00
17072;BME280;7731;50.720;6.912;2022-12-04T00:29:17;100103.50;;;2.07;100.00
17072;BME280;7731;50.720;6.912;2022-12-04T00:31:47;100107.63;;;2.14;100.00
17072;BME280;7731;50.720;6.912;2022-12-04T00:34:18;100105.53;;;1.83;99.93
17072;BME280;7731;50.720;6.912;2022-12-04T00:36:48;100105.75;;;1.68;100.00
17072;BME280;7731;50.720;6.912;2022-12-04T00:39:19;100100.81;;;1.57;100.00
17072;BME280;7731;50.720;6.912;2022-12-04T00:41:51;100104.25;;;1.51;100.00
17072;BME280;7731;50.720;6.912;2022-12-04T00:44:24;100100.47;;;1.83;99.52
17072;BME280;7731;50.720;6.912;2022-12-04T00:46:54;100093.34;;;1.48;99.35
17072;BME280;7731;50.720;6.912;2022-12-04T00:49:25;100100.88;;;1.52;99.57
17072;BME280;7731;50.720;6.912;2022-12-04T00:51:55;100085.63;;;1.58;99.04
17072;BME280;7731;50.720;6.912;2022-12-04T00:54:26;100100.88;;;1.52;99.66
17072;BME280;7731;50.720;6.912;2022-12-04T00:56:57;100092.16;;;1.72;99.84
17072;BME280;7731;50.720;6.912;2022-12-04T00:59:30;100090.41;;;1.78;99.36
17072;BME280;7731;50.720;6.912;2022-12-04T01:02:01;100095.50;;;1.77;99.37
17072;BME280;7731;50.720;6.912;2022-12-04T01:04:31;100096.41;;;1.71;99.92
17072;BME280;7731;50.720;6.912;2022-12-04T01:07:02;100091.25;;;1.77;99.44
17072;BME280;7731;50.720;6.912;2022-12-04T01:09:32;100089.53;;;1.78;98.08
17072;BME280;7731;50.720;6.912;2022-12-04T01:12:02;100086.16;;;1.81;98.33
17072;BME280;7731;50.720;6.912;2022-12-04T01:14:35;100089.72;;;1.66;98.71
17072;BME280;7731;50.720;6.912;2022-12-04T01:17:06;100090.56;;;1.68;99.30
17072;BME280;7731;50.720;6.912;2022-12-04T01:19:36;100085.22;;;1.86;98.01
17072;BME280;7731;50.720;6.912;2022-12-04T01:22:06;100085.00;;;2.02;97.09
17072;BME280;7731;50.720;6.912;2022-12-04T01:24:36;100083.88;;;1.60;97.53
17072;BME280;7731;50.720;6.912;2022-12-04T01:27:07;100089.59;;;1.75;96.97
17072;BME280;7731;50.720;6.912;2022-12-04T01:29:40;100081.25;;;1.68;97.25
17072;BME280;7731;50.720;6.912;2022-12-04T01:32:11;100085.50;;;1.66;96.49
17072;BME280;7731;50.720;6.912;2022-12-04T01:34:41;100079.53;;;1.70;96.39
17072;BME280;7731;50.720;6.912;2022-12-04T01:37:11;100080.09;;;1.91;96.39
17072;BME280;7731;50.720;6.912;2022-12-04T01:39:42;100080.69;;;2.07;94.89
17072;BME280;7731;50.720;6.912;2022-12-04T01:42:13;100075.50;;;1.58;95.89
17072;BME280;7731;50.720;6.912;2022-12-04T01:45:30;100073.72;;;1.64;95.64
17072;BME280;7731;50.720;6.912;2022-12-04T01:48:14;100075.41;;;1.65;95.00
17072;BME280;7731;50.720;6.912;2022-12-04T01:50:47;100074.88;;;1.39;96.16
17072;BME280;7731;50.720;6.912;2022-12-04T01:53:20;100073.22;;;1.38;97.04
17072;BME280;7731;50.720;6.912;2022-12-04T01:55:50;100074.47;;;1.70;95.75
17072;BME280;7731;50.720;6.912;2022-12-04T01:58:26;100076.53;;;1.42;96.49
17072;BME280;7731;50.720;6.912;2022-12-04T02:01:05;100079.91;;;1.42;97.08
17072;BME280;7731;50.720;6.912;2022-12-04T02:03:37;100081.78;;;1.28;98.22
17072;BME280;7731;50.720;6.912;2022-12-04T02:06:08;100084.13;;;1.42;98.25
17072;BME280;7731;50.720;6.912;2022-12-04T02:08:38;100082.16;;;1.63;96.71
17072;BME280;7731;50.720;6.912;2022-12-04T02:11:21;100080.63;;;1.52;96.03
17072;BME280;7731;50.720;6.912;2022-12-04T02:14:05;100083.28;;;1.43;96.83
17072;BME280;7731;50.720;6.912;2022-12-04T02:16:47;100091.13;;;1.23;97.54
17072;BME280;7731;50.720;6.912;2022-12-04T02:19:50;100084.28;;;1.30;97.02
17072;BME280;7731;50.720;6.912;2022-12-04T02:22:40;100072.59;;;1.19;97.87
17072;BME280;7731;50.720;6.912;2022-12-04T02:25:23;100076.72;;;1.27;97.66
17072;BME280;7731;50.720;6.912;2022-12-04T02:28:08;100080.88;;;1.34;98.12
17072;BME280;7731;50.720;6.912;2022-12-04T02:30:41;100084.44;;;1.17;98.39
17072;BME280;7731;50.720;6.912;2022-12-04T02:33:21;100091.13;;;1.23;98.89
17072;BME280;7731;50.720;6.912;2022-12-04T02:36:03;100085.63;;;1.57;96.47
17072;BME280;7731;50.720;6.912;2022-12-04T02:38:39;100088.38;;;1.41;97.21
17072;BME280;7731;50.720;6.912;2022-12-04T02:41:17;100091.66;;;1.48;97.75
17072;BME280;7731;50.720;6.912;2022-12-04T02:44:04;100087.47;;;1.44;98.15
17072;BME280;7731;50.720;6.912;2022-12-04T02:46:40;100085.75;;;1.49;97.92
17072;BME280;7731;50.720;6.912;2022-12-04T02:49:16;100086.66;;;1.42;96.97
17072;BME280;7731;50.720;6.912;2022-12-04T02:51:49;100093.59;;;1.28;98.49
17072;BME280;7731;50.720;6.912;2022-12-04T02:54:27;100087.66;;;1.29;97.68
17072;BME280;7731;50.720;6.912;2022-12-04T02:57:02;100094.34;;;1.36;97.53
17072;BME280;7731;50.720;6.912;2022-12-04T02:59:40;100091.66;;;1.47;97.38
17072;BME280;7731;50.720;6.912;2022-12-04T03:02:18;100088.44;;;1.35;98.59
17072;BME280;7731;50.720;6.912;2022-12-04T03:04:52;100084.16;;;1.40;98.14
17072;BME280;7731;50.720;6.912;2022-12-04T03:07:31;100086.56;;;1.50;98.28
17072;BME280;7731;50.720;6.912;2022-12-04T03:10:08;100089.75;;;1.63;96.35
17072;BME280;7731;50.720;6.912;2022-12-04T03:12:44;100087.22;;;1.63;95.15
17072;BME280;7731;50.720;6.912;2022-12-04T03:15:24;100092.81;;;1.88;94.23
17072;BME280;7731;50.720;6.912;2022-12-04T03:18:02;100095.63;;;1.68;93.76
17072;BME280;7731;50.720;6.912;2022-12-04T03:20:36;100095.75;;;1.58;94.22
17072;BME280;7731;50.720;6.912;2022-12-04T03:23:14;100087.06;;;1.75;93.58
17072;BME280;7731;50.720;6.912;2022-12-04T03:25:55;100095.69;;;1.62;93.65
17072;BME280;7731;50.720;6.912;2022-12-04T03:28:36;100102.59;;;1.50;94.36
17072;BME280;7731;50.720;6.912;2022-12-04T03:31:19;100097.75;;;1.32;95.78
17072;BME280;7731;50.720;6.912;2022-12-04T03:33:56;100097.56;;;1.47;94.53
17072;BME280;7731;50.720;6.912;2022-12-04T03:36:35;100096.00;;;1.38;95.30
17072;BME280;7731;50.720;6.912;2022-12-04T03:39:16;100092.56;;;1.41;94.84
17072;BME280;7731;50.720;6.912;2022-12-04T03:41:57;100091.66;;;1.47;94.68
17072;BME280;7731;50.720;6.912;2022-12-04T03:44:37;100086.13;;;1.17;95.67
17072;BME280;7731;50.720;6.912;2022-12-04T03:47:16;100092.19;;;1.02;97.19
17072;BME280;7731;50.720;6.912;2022-12-04T03:49:53;100091.25;;;1.12;96.71
17072;BME280;7731;50.720;6.912;2022-12-04T03:52:31;100103.09;;;1.07;96.69
17072;BME280;7731;50.720;6.912;2022-12-04T03:55:10;100090.56;;;0.96;96.91
17072;BME280;7731;50.720;6.912;2022-12-04T03:57:45;100103.94;;;1.09;96.07
17072;BME280;7731;50.720;6.912;2022-12-04T04:00:21;100103.97;;;1.06;94.96
17072;BME280;7731;50.720;6.912;2022-12-04T04:02:58;100100.63;;;1.02;95.93
17072;BME280;7731;50.720;6.912;2022-12-04T04:05:34;100099.00;;;0.94;96.47
17072;BME280;7731;50.720;6.912;2022-12-04T04:08:09;100103.09;;;1.07;95.98
17072;BME280;7731;50.720;6.912;2022-12-04T04:11:09;100092.66;;;1.35;94.92
17072;BME280;7731;50.720;6.912;2022-12-04T04:13:48;100094.25;;;1.42;92.99
17072;BME280;7731;50.720;6.912;2022-12-04T04:16:37;100097.72;;;1.35;95.35
17072;BME280;7731;50.720;6.912;2022-12-04T04:19:27;100101.16;;;1.31;94.09
17072;BME280;7731;50.720;6.912;2022-12-04T04:22:12;100094.34;;;1.36;93.49
17072;BME280;7731;50.720;6.912;2022-12-04T04:25:03;100091.66;;;1.47;92.47
17072;BME280;7731;50.720;6.912;2022-12-04T04:27:35;100087.50;;;1.41;92.44
17072;BME280;7731;50.720;6.912;2022-12-04T04:30:07;100094.09;;;1.54;92.42
17072;BME280;7731;50.720;6.912;2022-12-04T04:32:44;100099.19;;;1.51;92.07
17072;BME280;7731;50.720;6.912;2022-12-04T04:35:28;100092.97;;;1.07;93.09
17072;BME280;7731;50.720;6.912;2022-12-04T04:38:14;100085.50;;;0.98;94.08
17072;BME280;7731;50.720;6.912;2022-12-04T04:40:56;100087.75;;;1.22;93.85
17072;BME280;7731;50.720;6.912;2022-12-04T04:43:34;100095.63;;;0.96;95.41
17072;BME280;7731;50.720;6.912;2022-12-04T04:46:11;100094.44;;;1.27;93.73
17072;BME280;7731;50.720;6.912;2022-12-04T04:48:50;100089.75;;;0.96;94.42
17072;BME280;7731;50.720;6.912;2022-12-04T04:51:27;100081.38;;;0.87;95.42
17072;BME280;7731;50.720;6.912;2022-12-04T04:54:03;100084.84;;;0.79;96.18
17072;BME280;7731;50.720;6.912;2022-12-04T04:56:41;100082.47;;;0.63;97.02
17072;BME280;7731;50.720;6.912;2022-12-04T04:59:13;100078.97;;;0.74;96.87
17072;BME280;7731;50.720;6.912;2022-12-04T05:01:46;100074.69;;;0.83;96.75
17072;BME280;7731;50.720;6.912;2022-12-04T05:04:17;100086.44;;;0.87;96.20
17072;BME280;7731;50.720;6.912;2022-12-04T05:06:50;100071.28;;;0.84;97.38
17072;BME280;7731;50.720;6.912;2022-12-04T05:09:22;100077.06;;;0.99;96.20
17072;BME280;7731;50.720;6.912;2022-12-04T05:11:52;100077.03;;;1.00;96.18
17072;BME280;7731;50.720;6.912;2022-12-04T05:14:23;100075.25;;;1.09;95.64
17072;BME280;7731;50.720;6.912;2022-12-04T05:16:53;100084.66;;;0.99;95.97
17072;BME280;7731;50.720;6.912;2022-12-04T05:19:31;100082.19;;;0.91;96.59
17072;BME280;7731;50.720;6.912;2022-12-04T05:22:16;100083.06;;;0.88;97.22
17072;BME280;7731;50.720;6.912;2022-12-04T05:24:47;100066.06;;;1.00;95.92
17072;BME280;7731;50.720;6.912;2022-12-04T05:27:20;100080.34;;;1.05;95.24
17072;BME280;7731;50.720;6.912;2022-12-04T05:29:52;100074.50;;;1.02;96.76
17072;BME280;7731;50.720;6.912;2022-12-04T05:32:26;100082.78;;;1.13;96.07
17072;BME280;7731;50.720;6.912;2022-12-04T05:34:57;100076.78;;;1.22;95.48
17072;BME280;7731;50.720;6.912;2022-12-04T05:37:39;100071.97;;;1.00;96.89
17072;BME280;7731;50.720;6.912;2022-12-04T05:40:10;100071.03;;;1.09;97.24
17072;BME280;7731;50.720;6.912;2022-12-04T05:42:41;100074.72;;;0.80;96.27
17072;BME280;7731;50.720;6.912;2022-12-04T05:45:11;100072.00;;;0.97;97.07
17072;BME280;7731;50.720;6.912;2022-12-04T05:47:43;100079.75;;;0.83;95.89
17072;BME280;7731;50.720;6.912;2022-12-04T05:50:13;100071.19;;;0.94;97.10
17072;BME280;7731;50.720;6.912;2022-12-04T05:52:46;100066.97;;;0.96;95.15
17072;BME280;7731;50.720;6.912;2022-12-04T05:55:16;100065.06;;;1.15;94.71
17072;BME280;7731;50.720;6.912;2022-12-04T05:57:46;100064.19;;;1.17;94.70
17072;BME280;7731;50.720;6.912;2022-12-04T06:00:17;100067.78;;;0.98;94.20
17072;BME280;7731;50.720;6.912;2022-12-04T06:02:48;100072.94;;;0.88;94.77
17072;BME280;7731;50.720;6.912;2022-12-04T06:05:18;100081.69;;;0.55;96.48
17072;BME280;7731;50.720;6.912;2022-12-04T06:07:51;100088.34;;;0.67;96.77
17072;BME280;7731;50.720;6.912;2022-12-04T06:10:21;100071.53;;;0.60;96.54
17072;BME280;7731;50.720;6.912;2022-12-04T06:12:51;100085.13;;;0.51;97.65
17072;BME280;7731;50.720;6.912;2022-12-04T06:15:24;100090.09;;;0.59;97.40
17072;BME280;7731;50.720;6.912;2022-12-04T06:17:54;100089.28;;;0.55;98.39
17072;BME280;7731;50.720;6.912;2022-12-04T06:20:24;100091.84;;;0.50;98.23
17072;BME280;7731;50.720;6.912;2022-12-04T06:22:57;100097.06;;;0.32;98.82
17072;BME280;7731;50.720;6.912;2022-12-04T06:25:27;100098.72;;;0.36;99.85
17072;BME280;7731;50.720;6.912;2022-12-04T06:27:58;100102.88;;;0.45;99.93
17072;BME280;7731;50.720;6.912;2022-12-04T06:30:28;100101.16;;;0.47;99.94
17072;BME280;7731;50.720;6.912;2022-12-04T06:32:58;100103.63;;;0.53;99.61
17072;BME280;7731;50.720;6.912;2022-12-04T06:35:29;100099.31;;;0.63;98.64
17072;BME280;7731;50.720;6.912;2022-12-04T06:38:04;100102.69;;;0.66;98.45
17072;BME280;7731;50.720;6.912;2022-12-04T06:40:38;100107.72;;;0.68;98.07
17072;BME280;7731;50.720;6.912;2022-12-04T06:43:09;100106.91;;;0.63;98.63
17072;BME280;7731;50.720;6.912;2022-12-04T06:45:39;100105.25;;;0.62;98.33
17072;BME280;7731;50.720;6.912;2022-12-04T06:48:10;100105.81;;;0.88;97.98
17072;BME280;7731;50.720;6.912;2022-12-04T06:50:40;100101.72;;;0.75;97.20
17072;BME280;7731;50.720;6.912;2022-12-04T06:53:13;100107.09;;;0.41;99.12
17072;BME280;7731;50.720;6.912;2022-12-04T06:55:47;100115.53;;;0.40;98.30
17072;BME280;7731;50.720;6.912;2022-12-04T06:58:20;100120.53;;;0.46;98.37
17072;BME280;7731;50.720;6.912;2022-12-04T07:00:50;100117.22;;;0.38;98.83
17072;BME280;7731;50.720;6.912;2022-12-04T07:03:23;100118.88;;;0.45;98.93
17072;BME280;7731;50.720;6.912;2022-12-04T07:05:55;100122.13;;;0.57;98.82
17072;BME280;7731;50.720;6.912;2022-12-04T07:08:28;100118.91;;;0.39;98.50
17072;BME280;7731;50.720;6.912;2022-12-04T07:11:01;100119.03;;;0.24;99.46
17072;BME280;7731;50.720;6.912;2022-12-04T07:13:34;100113.91;;;0.33;100.00
17072;BME280;7731;50.720;6.912;2022-12-04T07:16:08;100115.53;;;0.43;99.88
17072;BME280;7731;50.720;6.912;2022-12-04T07:18:40;100123.88;;;0.48;98.59
17072;BME280;7731;50.720;6.912;2022-12-04T07:21:16;100120.25;;;0.80;97.72
17072;BME280;7731;50.720;6.912;2022-12-04T07:23:53;100124.38;;;0.87;97.15
17072;BME280;7731;50.720;6.912;2022-12-04T07:26:25;100121.97;;;0.75;97.50
17072;BME280;7731;50.720;6.912;2022-12-04T07:28:56;100126.41;;;0.51;97.89
17072;BME280;7731;50.720;6.912;2022-12-04T07:31:29;100124.47;;;0.75;97.20
17072;BME280;7731;50.720;6.912;2022-12-04T07:33:59;100120.31;;;0.74;97.10
17072;BME280;7731;50.720;6.912;2022-12-04T07:36:29;100124.72;;;0.47;98.02
17072;BME280;7731;50.720;6.912;2022-12-04T07:39:05;100114.72;;;0.33;100.00
17072;BME280;7731;50.720;6.912;2022-12-04T07:41:35;100117.97;;;0.52;99.33
17072;BME280;7731;50.720;6.912;2022-12-04T07:44:06;100106.78;;;0.75;98.73
17072;BME280;7731;50.720;6.912;2022-12-04T07:46:36;100104.94;;;0.93;96.62
17072;BME280;7731;50.720;6.912;2022-12-04T07:49:06;100109.34;;;0.72;98.10
17072;BME280;7731;50.720;6.912;2022-12-04T07:51:36;100110.16;;;0.77;97.80
17072;BME280;7731;50.720;6.912;2022-12-04T07:54:09;100113.56;;;0.73;99.07
17072;BME280;7731;50.720;6.912;2022-12-04T07:56:39;100115.34;;;0.65;99.18
17072;BME280;7731;50.720;6.912;2022-12-04T07:59:09;100102.81;;;0.51;99.63
17072;BME280;7731;50.720;6.912;2022-12-04T08:01:39;100122.78;;;0.79;98.01
17072;BME280;7731;50.720;6.912;2022-12-04T08:04:11;100126.31;;;0.62;99.93
17072;BME280;7731;50.720;6.912;2022-12-04T08:06:41;100113.44;;;0.85;97.20
17072;BME280;7731;50.720;6.912;2022-12-04T08:09:14;100115.13;;;0.85;98.34
17072;BME280;7731;50.720;6.912;2022-12-04T08:11:44;100105.72;;;0.99;96.10
17072;BME280;7731;50.720;6.912;2022-12-04T08:14:15;100113.38;;;0.93;95.88
17072;BME280;7731;50.720;6.912;2022-12-04T08:16:48;100117.88;;;0.63;97.75
17072;BME280;7731;50.720;6.912;2022-12-04T08:19:19;100113.44;;;0.85;98.00
17072;BME280;7731;50.720;6.912;2022-12-04T08:21:49;100124.41;;;0.84;97.24
17072;BME280;7731;50.720;6.912;2022-12-04T08:24:26;100116.56;;;1.12;96.15
17072;BME280;7731;50.720;6.912;2022-12-04T08:26:56;100128.78;;;0.67;96.80
17072;BME280;7731;50.720;6.912;2022-12-04T08:29:27;100119.69;;;0.44;99.40
17072;BME280;7731;50.720;6.912;2022-12-04T08:31:57;100116.34;;;0.45;100.00
17072;BME280;7731;50.720;6.912;2022-12-04T08:34:27;100118.81;;;0.51;100.00
17072;BME280;7731;50.720;6.912;2022-12-04T08:36:58;100116.91;;;0.75;99.78
17072;BME280;7731;50.720;6.912;2022-12-04T08:39:30;100114.06;;;1.04;97.02
17072;BME280;7731;50.720;6.912;2022-12-04T08:42:01;100109.28;;;0.80;96.85
17072;BME280;7731;50.720;6.912;2022-12-04T08:47:01;100112.50;;;0.97;96.75
17072;BME280;7731;50.720;6.912;2022-12-04T08:49:31;100109.88;;;1.05;95.86
17072;BME280;7731;50.720;6.912;2022-12-04T08:52:01;100108.28;;;0.96;97.07
17072;BME280;7731;50.720;6.912;2022-12-04T08:54:34;100110.34;;;0.59;98.39
17072;BME280;7731;50.720;6.912;2022-12-04T08:57:05;100115.31;;;0.68;98.75
17072;BME280;7731;50.720;6.912;2022-12-04T08:59:35;100118.66;;;0.70;98.06
17072;BME280;7731;50.720;6.912;2022-12-04T09:02:05;100120.97;;;0.90;98.28
17072;BME280;7731;50.720;6.912;2022-12-04T09:04:36;100125.25;;;0.85;98.41
17072;BME280;7731;50.720;6.912;2022-12-04T09:07:06;100131.97;;;0.87;98.25
17072;BME280;7731;50.720;6.912;2022-12-04T09:09:39;100139.50;;;0.91;98.80
17072;BME280;7731;50.720;6.912;2022-12-04T09:12:21;100137.03;;;0.84;98.49
17072;BME280;7731;50.720;6.912;2022-12-04T09:14:51;100141.25;;;0.87;97.95
17072;BME280;7731;50.720;6.912;2022-12-04T09:17:22;100150.59;;;0.79;98.57
17072;BME280;7731;50.720;6.912;2022-12-04T09:19:52;100150.41;;;1.00;97.78
17072;BME280;7731;50.720;6.912;2022-12-04T09:22:27;100135.91;;;1.13;97.00
17072;BME280;7731;50.720;6.912;2022-12-04T09:25:20;100142.09;;;0.84;97.42
17072;BME280;7731;50.720;6.912;2022-12-04T09:27:50;100143.25;;;0.52;99.35
17072;BME280;7731;50.720;6.912;2022-12-04T09:30:20;100144.88;;;0.57;99.72
17072;BME280;7731;50.720;6.912;2022-12-04T09:32:53;100148.13;;;0.73;99.04
17072;BME280;7731;50.720;6.912;2022-12-04T09:35:23;100142.31;;;0.60;99.89
17072;BME280;7731;50.720;6.912;2022-12-04T09:37:53;100150.81;;;0.52;100.00
17072;BME280;7731;50.720;6.912;2022-12-04T09:40:33;100151.66;;;0.55;100.00
17072;BME280;7731;50.720;6.912;2022-12-04T09:43:21;100146.56;;;0.58;100.00
17072;BME280;7731;50.720;6.912;2022-12-04T09:46:02;100140.56;;;0.71;99.84
17072;BME280;7731;50.720;6.912;2022-12-04T09:48:38;100138.53;;;1.04;97.81
17072;BME280;7731;50.720;6.912;2022-12-04T09:51:14;100136.09;;;0.98;98.46
17072;BME280;7731;50.720;6.912;2022-12-04T09:53:52;100123.38;;;1.04;97.58
17072;BME280;7731;50.720;6.912;2022-12-04T09:56:29;100128.63;;;0.85;98.50
17072;BME280;7731;50.720;6.912;2022-12-04T09:59:10;100132.00;;;0.81;99.05
17072;BME280;7731;50.720;6.912;2022-12-04T10:01:46;100134.47;;;0.91;99.90
17072;BME280;7731;50.720;6.912;2022-12-04T10:04:18;100130.31;;;0.86;99.71
17072;BME280;7731;50.720;6.912;2022-12-04T10:06:57;100118.59;;;1.54;100.00
17072;BME280;7731;50.720;6.912;2022-12-04T10:09:41;100125.84;;;1.80;97.42
17072;BME280;7731;50.720;6.912;2022-12-04T10:12:28;100118.66;;;1.48;96.62
17072;BME280;7731;50.720;6.912;2022-12-04T10:15:25;100120.03;;;1.72;95.37
17072;BME280;7731;50.720;6.912;2022-12-04T10:18:23;100120.16;;;1.63;93.33
17072;BME280;7731;50.720;6.912;2022-12-04T10:21:24;100115.19;;;1.55;94.68
17072;BME280;7731;50.720;6.912;2022-12-04T10:24:19;100114.66;;;1.30;96.08
17072;BME280;7731;50.720;6.912;2022-12-04T10:26:56;100108.00;;;1.19;97.39
17072;BME280;7731;50.720;6.912;2022-12-04T10:29:35;100104.03;;;0.98;97.66
17072;BME280;7731;50.720;6.912;2022-12-04T10:32:18;100109.66;;;1.23;97.54
17072;BME280;7731;50.720;6.912;2022-12-04T10:34:53;100101.63;;;1.59;96.94
17072;BME280;7731;50.720;6.912;2022-12-04T10:37:26;100102.84;;;1.29;96.60
17072;BME280;7731;50.720;6.912;2022-12-04T10:40:07;100093.25;;;1.55;96.81
17072;BME280;7731;50.720;6.912;2022-12-04T10:42:49;100085.97;;;1.93;93.39
17072;BME280;7731;50.720;6.912;2022-12-04T10:45:26;100078.16;;;1.49;93.07
17072;BME280;7731;50.720;6.912;2022-12-04T10:47:57;100075.00;;;1.30;95.12
17072;BME280;7731;50.720;6.912;2022-12-04T10:50:27;100072.25;;;1.47;97.80
17072;BME280;7731;50.720;6.912;2022-12-04T10:52:58;100071.50;;;1.40;96.08
17072;BME280;7731;50.720;6.912;2022-12-04T10:55:31;100069.88;;;1.33;97.21
17072;BME280;7731;50.720;6.912;2022-12-04T10:58:14;100076.41;;;1.51;97.93
17072;BME280;7731;50.720;6.912;2022-12-04T11:01:01;100068.31;;;1.88;92.10
17072;BME280;7731;50.720;6.912;2022-12-04T11:03:33;100068.31;;;1.88;93.42
17072;BME280;7731;50.720;6.912;2022-12-04T11:06:07;100065.94;;;1.76;94.11
17072;BME280;7731;50.720;6.912;2022-12-04T11:08:42;100068.13;;;1.99;92.69
17072;BME280;7731;50.720;6.912;2022-12-04T11:11:22;100058.97;;;1.90;92.82
17072;BME280;7731;50.720;6.912;2022-12-04T11:14:05;100061.00;;;2.24;92.59
17072;BME280;7731;50.720;6.912;2022-12-04T11:16:45;100054.53;;;2.05;92.17
17072;BME280;7731;50.720;6.912;2022-12-04T11:19:34;100054.19;;;2.26;92.47
17072;BME280;7731;50.720;6.912;2022-12-04T11:22:13;100049.84;;;2.33;90.78
17072;BME280;7731;50.720;6.912;2022-12-04T11:24:52;100054.16;;;2.29;90.34
17072;BME280;7731;50.720;6.912;2022-12-04T11:27:29;100049.50;;;2.53;88.84
17072;BME280;7731;50.720;6.912;2022-12-04T11:30:08;100053.44;;;2.23;90.14
17072;BME280;7731;50.720;6.912;2022-12-04T11:32:43;100056.03;;;2.18;91.38
17072;BME280;7731;50.720;6.912;2022-12-04T11:35:20;100050.00;;;2.24;91.92
17072;BME280;7731;50.720;6.912;2022-12-04T11:37:56;100039.16;;;2.17;92.24
17072;BME280;7731;50.720;6.912;2022-12-04T11:40:27;100047.44;;;2.25;92.46
17072;BME280;7731;50.720;6.912;2022-12-04T11:43:03;100051.78;;;2.19;92.50
17072;BME280;7731;50.720;6.912;2022-12-04T11:45:33;100046.53;;;2.29;93.01
17072;BME280;7731;50.720;6.912;2022-12-04T11:48:17;100050.16;;;2.14;93.33
17072;BME280;7731;50.720;6.912;2022-12-04T11:50:58;100053.88;;;1.92;95.77
17072;BME280;7731;50.720;6.912;2022-12-04T11:53:46;100052.50;;;2.25;93.09
17072;BME280;7731;50.720;6.912;2022-12-04T11:56:28;100060.38;;;2.08;93.86
17072;BME280;7731;50.720;6.912;2022-12-04T11:59:22;100042.00;;;1.97;94.48
17072;BME280;7731;50.720;6.912;2022-12-04T12:02:24;100046.25;;;1.93;94.99
17072;BME280;7731;50.720;6.912;2022-12-04T12:05:19;100043.66;;;1.98;95.05
17072;BME280;7731;50.720;6.912;2022-12-04T12:08:04;100054.28;;;2.22;94.50
17072;BME280;7731;50.720;6.912;2022-12-04T12:10:54;100055.13;;;2.21;93.69
17072;BME280;7731;50.720;6.912;2022-12-04T12:13:37;100042.69;;;2.07;94.71
17072;BME280;7731;50.720;6.912;2022-12-04T12:16:26;100048.44;;;2.17;95.51
17072;BME280;7731;50.720;6.912;2022-12-04T12:19:33;100050.81;;;2.27;93.42
17072;BME280;7731;50.720;6.912;2022-12-04T12:22:35;100039.00;;;2.26;93.89
17072;BME280;7731;50.720;6.912;2022-12-04T12:25:18;100047.34;;;2.31;93.43
17072;BME280;7731;50.720;6.912;2022-12-04T12:28:19;100035.06;;;2.08;94.79
17072;BME280;7731;50.720;6.912;2022-12-04T12:31:13;100032.44;;;2.13;96.10
17072;BME280;7731;50.720;6.912;2022-12-04T12:33:55;100018.81;;;2.20;95.15
17072;BME280;7731;50.720;6.912;2022-12-04T12:36:32;100014.41;;;2.30;94.98
17072;BME280;7731;50.720;6.912;2022-12-04T12:39:19;100013.94;;;2.08;94.87
17072;BME280;7731;50.720;6.912;2022-12-04T12:41:55;100008.78;;;2.14;95.82
17072;BME280;7731;50.720;6.912;2022-12-04T12:44:34;100015.53;;;2.15;95.28
17072;BME280;7731;50.720;6.912;2022-12-04T12:47:14;100014.06;;;2.02;95.95
17072;BME280;7731;50.720;6.912;2022-12-04T12:49:51;100018.97;;;2.11;96.49
17072;BME280;7731;50.720;6.912;2022-12-04T12:52:32;100013.19;;;2.03;96.96
17072;BME280;7731;50.720;6.912;2022-12-04T12:55:17;100021.41;;;2.17;96.69
17072;BME280;7731;50.720;6.912;2022-12-04T12:57:57;100025.84;;;2.03;96.11
17072;BME280;7731;50.720;6.912;2022-12-04T13:00:35;100019.88;;;2.07;96.13
17072;BME280;7731;50.720;6.912;2022-12-04T13:03:26;100014.34;;;1.83;96.39
17072;BME280;7731;50.720;6.912;2022-12-04T13:06:04;100011.63;;;1.95;97.89
17072;BME280;7731;50.720;6.912;2022-12-04T13:08:39;100008.44;;;1.83;98.25
17072;BME280;7731;50.720;6.912;2022-12-04T13:11:21;100007.84;;;1.67;97.75
17072;BME280;7731;50.720;6.912;2022-12-04T13:13:57;100004.56;;;2.13;98.76
17072;BME280;7731;50.720;6.912;2022-12-04T13:16:35;99995.31;;;2.10;96.93
17072;BME280;7731;50.720;6.912;2022-12-04T13:19:15;99994.75;;;1.93;97.02
17072;BME280;7731;50.720;6.912;2022-12-04T13:21:58;99986.94;;;2.07;98.54
17072;BME280;7731;50.720;6.912;2022-12-04T13:25:09;99989.28;;;2.18;97.11
17072;BME280;7731;50.720;6.912;2022-12-04T13:28:00;99985.41;;;1.96;99.94
17072;BME280;7731;50.720;6.912;2022-12-04T13:30:45;99981.72;;;2.14;97.37
17072;BME280;7731;50.720;6.912;2022-12-04T13:34:07;99988.25;;;2.29;96.15
17072;BME280;7731;50.720;6.912;2022-12-04T13:37:22;99995.09;;;2.24;96.72
17072;BME280;7731;50.720;6.912;2022-12-04T13:40:36;100003.59;;;2.20;96.80
17072;BME280;7731;50.720;6.912;2022-12-04T13:43:24;100010.78;;;1.93;97.35
17072;BME280;7731;50.720;6.912;2022-12-04T13:46:00;99997.91;;;2.07;97.53
17072;BME280;7731;50.720;6.912;2022-12-04T13:48:36;100002.91;;;2.10;96.98
17072;BME280;7731;50.720;6.912;2022-12-04T13:51:34;99996.25;;;2.05;97.41
17072;BME280;7731;50.720;6.912;2022-12-04T13:54:27;100002.22;;;2.02;98.09
17072;BME280;7731;50.720;6.912;2022-12-04T13:57:19;100000.31;;;2.15;97.37
17072;BME280;7731;50.720;6.912;2022-12-04T14:00:05;99985.28;;;2.04;98.12
17072;BME280;7731;50.720;6.912;2022-12-04T14:02:36;99988.56;;;2.11;97.32
17072;BME280;7731;50.720;6.912;2022-12-04T14:05:10;99985.13;;;2.15;97.18